XS20 weather

Dos Arroyos Ranch Airport
Mountain Home, Texas, United States

Public forecast

Using degrees Fahrenheit for public forecast. Weather courtesy of forecast.io.

Closest aviation weather report (METAR) to Dos Arroyos Ranch Airport

Closest report is Kerrville Municipal Louis Schreiner Field, 15.3 nm (28.4 km) SE. Retrieved 2020/01/20 11:35 UTC (0 seconds ago):

KERV 201135Z AUTO 00000KT 10SM CLR 00/M02 A3054 RMK AO2 T10051022

Closest aviation forecast (TAF) to Dos Arroyos Ranch Airport

Closest forecast is Kimble County Airport, 32.3 nm (59.8 km) NW. Retrieved 2020/01/20 06:22 UTC (5 hours ago):

TAF KJCT 200520Z 2006/2106 10005KT P6SM BKN070 FM201800 16007KT P6SM BKN070